sensor_id;sensor_type;location;lat;lon;timestamp;temperature;humidity
73939;DHT22;62291;47.554;8.504;2022-08-03T00:01:50;18.40;99.90
73939;DHT22;62291;47.554;8.504;2022-08-03T00:04:16;18.30;99.90
73939;DHT22;62291;47.554;8.504;2022-08-03T00:06:41;18.30;99.90
73939;DHT22;62291;47.554;8.504;2022-08-03T00:09:08;18.30;99.90
73939;DHT22;62291;47.554;8.504;2022-08-03T00:11:34;18.20;99.90
73939;DHT22;62291;47.554;8.504;2022-08-03T00:14:00;18.10;99.90
73939;DHT22;62291;47.554;8.504;2022-08-03T00:16:25;18.10;99.90
73939;DHT22;62291;47.554;8.504;2022-08-03T00:18:51;18.00;99.90
73939;DHT22;62291;47.554;8.504;2022-08-03T00:21:17;17.90;99.90
73939;DHT22;62291;47.554;8.504;2022-08-03T00:23:43;17.80;99.90
73939;DHT22;62291;47.554;8.504;2022-08-03T00:26:08;17.70;99.90
73939;DHT22;62291;47.554;8.504;2022-08-03T00:28:34;17.70;99.90
73939;DHT22;62291;47.554;8.504;2022-08-03T00:31:00;17.70;99.90
73939;DHT22;62291;47.554;8.504;2022-08-03T00:33:26;17.70;99.90
73939;DHT22;62291;47.554;8.504;2022-08-03T00:35:52;17.70;99.90
73939;DHT22;62291;47.554;8.504;2022-08-03T00:38:18;17.60;99.90
73939;DHT22;62291;47.554;8.504;2022-08-03T00:40:45;17.60;99.90
73939;DHT22;62291;47.554;8.504;2022-08-03T00:43:10;17.70;99.90
73939;DHT22;62291;47.554;8.504;2022-08-03T00:45:39;17.70;99.90
73939;DHT22;62291;47.554;8.504;2022-08-03T00:48:07;17.60;99.90
73939;DHT22;62291;47.554;8.504;2022-08-03T00:50:34;17.60;99.90
73939;DHT22;62291;47.554;8.504;2022-08-03T00:53:01;17.60;99.90
73939;DHT22;62291;47.554;8.504;2022-08-03T00:55:28;17.50;99.90
73939;DHT22;62291;47.554;8.504;2022-08-03T00:57:55;17.40;99.90
73939;DHT22;62291;47.554;8.504;2022-08-03T01:00:23;17.30;99.90
73939;DHT22;62291;47.554;8.504;2022-08-03T01:02:50;17.30;99.90
73939;DHT22;62291;47.554;8.504;2022-08-03T01:05:16;17.20;99.90
73939;DHT22;62291;47.554;8.504;2022-08-03T01:13:26;17.10;99.90
73939;DHT22;62291;47.554;8.504;2022-08-03T01:16:05;17.10;99.90
73939;DHT22;62291;47.554;8.504;2022-08-03T01:18:40;17.10;99.90
73939;DHT22;62291;47.554;8.504;2022-08-03T01:21:20;17.10;99.90
73939;DHT22;62291;47.554;8.504;2022-08-03T01:23:50;17.00;99.90
73939;DHT22;62291;47.554;8.504;2022-08-03T01:32:02;17.00;99.90
73939;DHT22;62291;47.554;8.504;2022-08-03T01:34:32;16.90;99.90
73939;DHT22;62291;47.554;8.504;2022-08-03T01:37:01;17.00;99.90
73939;DHT22;62291;47.554;8.504;2022-08-03T01:39:31;16.80;99.90
73939;DHT22;62291;47.554;8.504;2022-08-03T01:42:00;16.80;99.90
73939;DHT22;62291;47.554;8.504;2022-08-03T01:44:35;16.70;99.90
73939;DHT22;62291;47.554;8.504;2022-08-03T01:47:02;16.70;99.90
73939;DHT22;62291;47.554;8.504;2022-08-03T01:49:30;16.80;99.90
73939;DHT22;62291;47.554;8.504;2022-08-03T01:51:58;16.70;99.90
73939;DHT22;62291;47.554;8.504;2022-08-03T01:54:25;16.60;99.90
73939;DHT22;62291;47.554;8.504;2022-08-03T01:56:52;16.50;99.90
73939;DHT22;62291;47.554;8.504;2022-08-03T01:59:21;16.50;99.90
73939;DHT22;62291;47.554;8.504;2022-08-03T02:01:48;16.60;99.90
73939;DHT22;62291;47.554;8.504;2022-08-03T02:04:16;16.60;99.90
73939;DHT22;62291;47.554;8.504;2022-08-03T02:06:44;16.60;99.90
73939;DHT22;62291;47.554;8.504;2022-08-03T02:09:11;16.50;99.90
73939;DHT22;62291;47.554;8.504;2022-08-03T02:11:38;16.60;99.90
73939;DHT22;62291;47.554;8.504;2022-08-03T02:14:04;16.50;99.90
73939;DHT22;62291;47.554;8.504;2022-08-03T02:16:32;16.50;99.90
73939;DHT22;62291;47.554;8.504;2022-08-03T02:19:00;16.50;99.90
73939;DHT22;62291;47.554;8.504;2022-08-03T02:21:28;16.50;99.90
73939;DHT22;62291;47.554;8.504;2022-08-03T02:23:54;16.40;99.90
73939;DHT22;62291;47.554;8.504;2022-08-03T02:26:22;16.50;99.90
73939;DHT22;62291;47.554;8.504;2022-08-03T02:28:51;16.50;99.90
73939;DHT22;62291;47.554;8.504;2022-08-03T02:31:23;16.50;99.90
73939;DHT22;62291;47.554;8.504;2022-08-03T02:33:55;16.50;99.90
73939;DHT22;62291;47.554;8.504;2022-08-03T02:36:27;16.50;99.90
73939;DHT22;62291;47.554;8.504;2022-08-03T02:38:57;16.40;99.90
73939;DHT22;62291;47.554;8.504;2022-08-03T02:41:28;16.40;99.90
73939;DHT22;62291;47.554;8.504;2022-08-03T02:43:56;16.40;99.90
73939;DHT22;62291;47.554;8.504;2022-08-03T02:46:27;16.30;99.90
73939;DHT22;62291;47.554;8.504;2022-08-03T02:48:55;16.20;99.90
73939;DHT22;62291;47.554;8.504;2022-08-03T02:51:24;16.20;99.90
73939;DHT22;62291;47.554;8.504;2022-08-03T02:53:51;16.20;99.90
73939;DHT22;62291;47.554;8.504;2022-08-03T02:56:18;16.20;99.90
73939;DHT22;62291;47.554;8.504;2022-08-03T02:58:46;16.20;99.90
73939;DHT22;62291;47.554;8.504;2022-08-03T03:01:14;16.10;99.90
73939;DHT22;62291;47.554;8.504;2022-08-03T03:03:40;16.00;99.90
73939;DHT22;62291;47.554;8.504;2022-08-03T03:06:07;16.00;99.90
73939;DHT22;62291;47.554;8.504;2022-08-03T03:08:33;15.90;99.90
73939;DHT22;62291;47.554;8.504;2022-08-03T03:11:00;16.00;99.90
73939;DHT22;62291;47.554;8.504;2022-08-03T03:13:27;16.00;99.90
73939;DHT22;62291;47.554;8.504;2022-08-03T03:15:56;16.00;99.90
73939;DHT22;62291;47.554;8.504;2022-08-03T03:18:24;16.00;99.90
73939;DHT22;62291;47.554;8.504;2022-08-03T03:20:52;16.00;99.90
73939;DHT22;62291;47.554;8.504;2022-08-03T03:23:20;16.10;99.90
73939;DHT22;62291;47.554;8.504;2022-08-03T03:25:47;16.20;99.90
73939;DHT22;62291;47.554;8.504;2022-08-03T03:28:13;16.30;99.90
73939;DHT22;62291;47.554;8.504;2022-08-03T03:30:39;16.40;99.90
73939;DHT22;62291;47.554;8.504;2022-08-03T03:33:05;16.40;99.90
73939;DHT22;62291;47.554;8.504;2022-08-03T03:35:31;16.50;99.90
73939;DHT22;62291;47.554;8.504;2022-08-03T03:37:57;16.30;99.90
73939;DHT22;62291;47.554;8.504;2022-08-03T03:40:23;16.30;99.90
73939;DHT22;62291;47.554;8.504;2022-08-03T03:42:49;16.20;99.90
73939;DHT22;62291;47.554;8.504;2022-08-03T03:45:15;16.20;99.90
73939;DHT22;62291;47.554;8.504;2022-08-03T03:47:41;16.10;99.90
73939;DHT22;62291;47.554;8.504;2022-08-03T03:50:07;16.10;99.90
73939;DHT22;62291;47.554;8.504;2022-08-03T03:52:35;16.00;99.90
73939;DHT22;62291;47.554;8.504;2022-08-03T03:55:01;15.90;99.90
73939;DHT22;62291;47.554;8.504;2022-08-03T03:57:27;15.90;99.90
73939;DHT22;62291;47.554;8.504;2022-08-03T03:59:53;15.90;99.90
73939;DHT22;62291;47.554;8.504;2022-08-03T04:02:19;15.70;99.90
73939;DHT22;62291;47.554;8.504;2022-08-03T04:04:44;15.70;99.90
73939;DHT22;62291;47.554;8.504;2022-08-03T04:07:34;15.60;99.90
73939;DHT22;62291;47.554;8.504;2022-08-03T04:10:22;15.70;99.90
73939;DHT22;62291;47.554;8.504;2022-08-03T04:13:09;15.60;99.90
73939;DHT22;62291;47.554;8.504;2022-08-03T04:15:38;15.70;99.90
73939;DHT22;62291;47.554;8.504;2022-08-03T04:18:06;15.70;99.90
73939;DHT22;62291;47.554;8.504;2022-08-03T04:20:36;15.70;99.90
73939;DHT22;62291;47.554;8.504;2022-08-03T04:23:03;15.80;99.90
73939;DHT22;62291;47.554;8.504;2022-08-03T04:25:32;15.80;99.90
73939;DHT22;62291;47.554;8.504;2022-08-03T04:28:02;15.80;99.90
73939;DHT22;62291;47.554;8.504;2022-08-03T04:30:30;15.80;99.90
73939;DHT22;62291;47.554;8.504;2022-08-03T04:32:58;15.80;99.90
73939;DHT22;62291;47.554;8.504;2022-08-03T04:35:28;15.90;99.90
73939;DHT22;62291;47.554;8.504;2022-08-03T04:38:00;15.90;99.90
73939;DHT22;62291;47.554;8.504;2022-08-03T04:40:34;15.90;99.90
73939;DHT22;62291;47.554;8.504;2022-08-03T04:43:01;16.10;99.90
73939;DHT22;62291;47.554;8.504;2022-08-03T04:45:29;16.50;99.90
73939;DHT22;62291;47.554;8.504;2022-08-03T04:47:56;17.20;99.90
73939;DHT22;62291;47.554;8.504;2022-08-03T04:50:22;18.00;99.90
73939;DHT22;62291;47.554;8.504;2022-08-03T04:52:49;18.90;99.90
73939;DHT22;62291;47.554;8.504;2022-08-03T04:55:25;19.80;99.90
73939;DHT22;62291;47.554;8.504;2022-08-03T04:57:51;20.70;99.90
73939;DHT22;62291;47.554;8.504;2022-08-03T05:00:17;21.30;99.90
73939;DHT22;62291;47.554;8.504;2022-08-03T05:02:43;22.10;99.90
73939;DHT22;62291;47.554;8.504;2022-08-03T05:05:09;22.70;99.90
73939;DHT22;62291;47.554;8.504;2022-08-03T05:07:36;23.30;99.90
73939;DHT22;62291;47.554;8.504;2022-08-03T05:10:07;24.10;99.90
73939;DHT22;62291;47.554;8.504;2022-08-03T05:12:33;24.40;99.90
73939;DHT22;62291;47.554;8.504;2022-08-03T05:15:02;24.40;99.90
73939;DHT22;62291;47.554;8.504;2022-08-03T05:17:28;24.30;99.90
73939;DHT22;62291;47.554;8.504;2022-08-03T05:19:54;24.60;99.90
73939;DHT22;62291;47.554;8.504;2022-08-03T05:22:21;25.50;99.20
73939;DHT22;62291;47.554;8.504;2022-08-03T05:24:47;25.80;96.50
73939;DHT22;62291;47.554;8.504;2022-08-03T05:27:12;26.00;96.80
73939;DHT22;62291;47.554;8.504;2022-08-03T05:29:44;26.30;95.30
73939;DHT22;62291;47.554;8.504;2022-08-03T05:32:10;26.20;94.40
73939;DHT22;62291;47.554;8.504;2022-08-03T05:34:36;26.30;94.40
73939;DHT22;62291;47.554;8.504;2022-08-03T05:37:01;26.40;93.60
73939;DHT22;62291;47.554;8.504;2022-08-03T05:39:27;26.60;93.50
73939;DHT22;62291;47.554;8.504;2022-08-03T05:41:53;26.50;93.00
73939;DHT22;62291;47.554;8.504;2022-08-03T05:44:18;26.80;92.80
73939;DHT22;62291;47.554;8.504;2022-08-03T05:46:44;27.50;91.70
73939;DHT22;62291;47.554;8.504;2022-08-03T05:49:10;27.90;90.20
73939;DHT22;62291;47.554;8.504;2022-08-03T05:51:35;27.90;90.20
73939;DHT22;62291;47.554;8.504;2022-08-03T05:54:01;28.00;88.70
73939;DHT22;62291;47.554;8.504;2022-08-03T05:56:27;28.10;88.00
73939;DHT22;62291;47.554;8.504;2022-08-03T05:58:53;28.00;87.70
73939;DHT22;62291;47.554;8.504;2022-08-03T06:01:20;28.10;87.50
73939;DHT22;62291;47.554;8.504;2022-08-03T06:03:49;28.20;88.20
73939;DHT22;62291;47.554;8.504;2022-08-03T06:06:15;28.30;84.70
73939;DHT22;62291;47.554;8.504;2022-08-03T06:08:41;28.70;84.10
73939;DHT22;62291;47.554;8.504;2022-08-03T06:11:08;28.70;83.90
73939;DHT22;62291;47.554;8.504;2022-08-03T06:13:34;28.80;82.70
73939;DHT22;62291;47.554;8.504;2022-08-03T06:16:00;28.90;82.70
73939;DHT22;62291;47.554;8.504;2022-08-03T06:18:26;29.10;82.00
73939;DHT22;62291;47.554;8.504;2022-08-03T06:20:52;29.50;80.70
73939;DHT22;62291;47.554;8.504;2022-08-03T06:23:18;29.90;80.50
73939;DHT22;62291;47.554;8.504;2022-08-03T06:25:44;30.40;78.00
73939;DHT22;62291;47.554;8.504;2022-08-03T06:28:09;30.50;76.10
73939;DHT22;62291;47.554;8.504;2022-08-03T06:30:35;30.60;76.10
73939;DHT22;62291;47.554;8.504;2022-08-03T06:33:01;30.80;74.50
73939;DHT22;62291;47.554;8.504;2022-08-03T06:35:26;30.70;75.50
73939;DHT22;62291;47.554;8.504;2022-08-03T06:37:53;30.70;74.60
73939;DHT22;62291;47.554;8.504;2022-08-03T06:40:20;30.70;73.30
73939;DHT22;62291;47.554;8.504;2022-08-03T06:42:58;30.70;73.30
73939;DHT22;62291;47.554;8.504;2022-08-03T06:45:24;30.70;74.20
73939;DHT22;62291;47.554;8.504;2022-08-03T06:48:04;30.90;74.20
73939;DHT22;62291;47.554;8.504;2022-08-03T06:50:32;30.90;72.70
73939;DHT22;62291;47.554;8.504;2022-08-03T06:52:58;31.80;70.90
73939;DHT22;62291;47.554;8.504;2022-08-03T06:55:24;32.50;69.80
73939;DHT22;62291;47.554;8.504;2022-08-03T06:57:50;32.70;65.50
73939;DHT22;62291;47.554;8.504;2022-08-03T07:00:17;32.50;65.20
73939;DHT22;62291;47.554;8.504;2022-08-03T07:02:43;33.00;64.00
73939;DHT22;62291;47.554;8.504;2022-08-03T07:05:09;33.00;64.70
73939;DHT22;62291;47.554;8.504;2022-08-03T07:07:36;32.60;63.20
73939;DHT22;62291;47.554;8.504;2022-08-03T07:10:04;32.20;64.60
73939;DHT22;62291;47.554;8.504;2022-08-03T07:12:31;32.10;65.40
73939;DHT22;62291;47.554;8.504;2022-08-03T07:14:58;32.30;65.50
73939;DHT22;62291;47.554;8.504;2022-08-03T07:17:24;32.40;64.00
73939;DHT22;62291;47.554;8.504;2022-08-03T07:19:50;32.70;64.30
73939;DHT22;62291;47.554;8.504;2022-08-03T07:22:16;33.30;62.30
73939;DHT22;62291;47.554;8.504;2022-08-03T07:24:41;33.50;60.90
73939;DHT22;62291;47.554;8.504;2022-08-03T07:27:08;33.10;61.90
73939;DHT22;62291;47.554;8.504;2022-08-03T07:29:35;33.50;61.70
73939;DHT22;62291;47.554;8.504;2022-08-03T07:32:01;33.80;61.60
73939;DHT22;62291;47.554;8.504;2022-08-03T07:34:27;34.50;59.40
73939;DHT22;62291;47.554;8.504;2022-08-03T07:36:53;34.50;58.10
73939;DHT22;62291;47.554;8.504;2022-08-03T07:39:18;34.70;58.80
73939;DHT22;62291;47.554;8.504;2022-08-03T07:41:44;34.90;57.90
73939;DHT22;62291;47.554;8.504;2022-08-03T07:44:10;34.80;57.50
73939;DHT22;62291;47.554;8.504;2022-08-03T07:46:36;35.30;57.00
73939;DHT22;62291;47.554;8.504;2022-08-03T07:49:02;35.30;55.60
73939;DHT22;62291;47.554;8.504;2022-08-03T07:51:27;35.40;57.50
73939;DHT22;62291;47.554;8.504;2022-08-03T07:53:53;36.00;56.30
73939;DHT22;62291;47.554;8.504;2022-08-03T07:56:25;36.40;55.50
73939;DHT22;62291;47.554;8.504;2022-08-03T07:58:51;35.80;55.60
73939;DHT22;62291;47.554;8.504;2022-08-03T08:01:17;35.60;53.90
73939;DHT22;62291;47.554;8.504;2022-08-03T08:03:44;35.90;56.10
73939;DHT22;62291;47.554;8.504;2022-08-03T08:06:10;35.90;54.60
73939;DHT22;62291;47.554;8.504;2022-08-03T08:08:37;36.50;53.30
73939;DHT22;62291;47.554;8.504;2022-08-03T08:11:03;36.10;53.70
73939;DHT22;62291;47.554;8.504;2022-08-03T08:13:29;35.30;54.20
73939;DHT22;62291;47.554;8.504;2022-08-03T08:15:54;35.60;55.10
73939;DHT22;62291;47.554;8.504;2022-08-03T08:18:20;35.50;54.10
73939;DHT22;62291;47.554;8.504;2022-08-03T08:20:46;35.00;54.30
73939;DHT22;62291;47.554;8.504;2022-08-03T08:23:12;35.30;55.30
73939;DHT22;62291;47.554;8.504;2022-08-03T08:25:38;35.50;54.50
73939;DHT22;62291;47.554;8.504;2022-08-03T08:28:03;35.50;54.90
73939;DHT22;62291;47.554;8.504;2022-08-03T08:30:30;35.80;54.00
73939;DHT22;62291;47.554;8.504;2022-08-03T08:32:56;35.70;53.40
73939;DHT22;62291;47.554;8.504;2022-08-03T08:35:23;35.80;53.10
73939;DHT22;62291;47.554;8.504;2022-08-03T08:37:48;35.70;53.30
73939;DHT22;62291;47.554;8.504;2022-08-03T08:40:14;35.60;52.40
73939;DHT22;62291;47.554;8.504;2022-08-03T08:42:43;35.30;53.50
73939;DHT22;62291;47.554;8.504;2022-08-03T08:45:10;35.20;53.30
73939;DHT22;62291;47.554;8.504;2022-08-03T08:47:43;35.00;53.60
73939;DHT22;62291;47.554;8.504;2022-08-03T08:50:09;35.20;53.50
73939;DHT22;62291;47.554;8.504;2022-08-03T08:52:36;35.70;52.70
73939;DHT22;62291;47.554;8.504;2022-08-03T08:55:06;35.70;52.30
73939;DHT22;62291;47.554;8.504;2022-08-03T08:57:37;35.60;52.40
73939;DHT22;62291;47.554;8.504;2022-08-03T09:00:05;35.40;53.10
73939;DHT22;62291;47.554;8.504;2022-08-03T09:02:33;35.20;52.40
73939;DHT22;62291;47.554;8.504;2022-08-03T09:04:59;35.30;52.70
73939;DHT22;62291;47.554;8.504;2022-08-03T09:07:26;35.40;52.20
73939;DHT22;62291;47.554;8.504;2022-08-03T09:09:52;35.20;52.90
73939;DHT22;62291;47.554;8.504;2022-08-03T09:12:18;35.30;52.30
73939;DHT22;62291;47.554;8.504;2022-08-03T09:14:44;35.90;52.10
73939;DHT22;62291;47.554;8.504;2022-08-03T09:17:10;36.60;51.80
73939;DHT22;62291;47.554;8.504;2022-08-03T09:19:35;36.70;50.00
73939;DHT22;62291;47.554;8.504;2022-08-03T09:22:15;36.20;50.60
73939;DHT22;62291;47.554;8.504;2022-08-03T09:24:59;35.90;51.30
73939;DHT22;62291;47.554;8.504;2022-08-03T09:27:25;35.90;52.00
73939;DHT22;62291;47.554;8.504;2022-08-03T09:29:53;36.10;51.20
73939;DHT22;62291;47.554;8.504;2022-08-03T09:32:23;36.20;51.20
73939;DHT22;62291;47.554;8.504;2022-08-03T09:34:51;36.00;52.50
73939;DHT22;62291;47.554;8.504;2022-08-03T09:37:19;36.00;51.70
73939;DHT22;62291;47.554;8.504;2022-08-03T09:39:45;36.00;51.10
73939;DHT22;62291;47.554;8.504;2022-08-03T09:42:18;35.90;49.60
73939;DHT22;62291;47.554;8.504;2022-08-03T09:44:48;35.80;51.60
73939;DHT22;62291;47.554;8.504;2022-08-03T09:47:36;36.10;50.70
73939;DHT22;62291;47.554;8.504;2022-08-03T09:50:04;36.30;51.10
73939;DHT22;62291;47.554;8.504;2022-08-03T09:52:38;36.00;51.60
73939;DHT22;62291;47.554;8.504;2022-08-03T09:55:09;36.10;51.10
73939;DHT22;62291;47.554;8.504;2022-08-03T09:57:35;35.80;51.30
73939;DHT22;62291;47.554;8.504;2022-08-03T10:00:12;35.70;50.40
73939;DHT22;62291;47.554;8.504;2022-08-03T10:02:43;35.40;51.30
73939;DHT22;62291;47.554;8.504;2022-08-03T10:05:09;35.50;51.00
73939;DHT22;62291;47.554;8.504;2022-08-03T10:07:49;35.70;53.00
73939;DHT22;62291;47.554;8.504;2022-08-03T10:10:16;36.10;50.00
73939;DHT22;62291;47.554;8.504;2022-08-03T10:12:43;35.90;49.30
73939;DHT22;62291;47.554;8.504;2022-08-03T10:15:09;35.90;50.00
73939;DHT22;62291;47.554;8.504;2022-08-03T10:17:36;35.80;50.40
73939;DHT22;62291;47.554;8.504;2022-08-03T10:20:04;36.50;50.20
73939;DHT22;62291;47.554;8.504;2022-08-03T10:22:36;36.70;46.60
73939;DHT22;62291;47.554;8.504;2022-08-03T10:25:07;37.10;47.00
73939;DHT22;62291;47.554;8.504;2022-08-03T10:27:36;37.00;47.10
73939;DHT22;62291;47.554;8.504;2022-08-03T10:30:10;36.70;46.80
73939;DHT22;62291;47.554;8.504;2022-08-03T10:32:43;36.40;47.50
73939;DHT22;62291;47.554;8.504;2022-08-03T10:35:19;35.80;48.40
73939;DHT22;62291;47.554;8.504;2022-08-03T10:37:54;35.60;48.30
73939;DHT22;62291;47.554;8.504;2022-08-03T10:40:22;35.70;48.10
73939;DHT22;62291;47.554;8.504;2022-08-03T10:42:50;35.30;47.80
73939;DHT22;62291;47.554;8.504;2022-08-03T10:45:20;34.80;49.00
73939;DHT22;62291;47.554;8.504;2022-08-03T10:47:49;34.90;49.90
73939;DHT22;62291;47.554;8.504;2022-08-03T10:50:16;35.50;50.20
73939;DHT22;62291;47.554;8.504;2022-08-03T10:52:59;36.20;48.90
73939;DHT22;62291;47.554;8.504;2022-08-03T10:55:36;36.50;47.10
73939;DHT22;62291;47.554;8.504;2022-08-03T11:01:09;36.20;48.30
73939;DHT22;62291;47.554;8.504;2022-08-03T11:06:24;36.10;46.30
73939;DHT22;62291;47.554;8.504;2022-08-03T11:11:38;35.90;47.50
73939;DHT22;62291;47.554;8.504;2022-08-03T11:14:08;35.90;48.30
73939;DHT22;62291;47.554;8.504;2022-08-03T11:16:37;36.30;47.10
73939;DHT22;62291;47.554;8.504;2022-08-03T11:19:09;36.40;48.80
73939;DHT22;62291;47.554;8.504;2022-08-03T11:27:31;35.80;48.30
73939;DHT22;62291;47.554;8.504;2022-08-03T11:30:07;35.80;47.30
73939;DHT22;62291;47.554;8.504;2022-08-03T11:35:18;35.30;47.90
73939;DHT22;62291;47.554;8.504;2022-08-03T11:42:59;35.80;48.20
73939;DHT22;62291;47.554;8.504;2022-08-03T11:45:25;35.60;47.60
73939;DHT22;62291;47.554;8.504;2022-08-03T11:47:54;35.40;48.00
73939;DHT22;62291;47.554;8.504;2022-08-03T11:50:20;35.20;48.10
73939;DHT22;62291;47.554;8.504;2022-08-03T11:52:47;34.90;48.60
73939;DHT22;62291;47.554;8.504;2022-08-03T11:55:15;34.80;48.40
73939;DHT22;62291;47.554;8.504;2022-08-03T11:57:43;34.70;48.50
73939;DHT22;62291;47.554;8.504;2022-08-03T12:00:26;34.50;48.90
73939;DHT22;62291;47.554;8.504;2022-08-03T12:03:07;34.70;48.60
73939;DHT22;62291;47.554;8.504;2022-08-03T12:08:06;34.10;48.70
73939;DHT22;62291;47.554;8.504;2022-08-03T12:10:33;34.00;49.00
73939;DHT22;62291;47.554;8.504;2022-08-03T12:13:00;34.10;49.00
73939;DHT22;62291;47.554;8.504;2022-08-03T12:15:27;34.30;48.50
73939;DHT22;62291;47.554;8.504;2022-08-03T12:17:55;34.10;48.70
73939;DHT22;62291;47.554;8.504;2022-08-03T12:20:23;34.30;48.90
73939;DHT22;62291;47.554;8.504;2022-08-03T12:22:49;34.50;48.90
73939;DHT22;62291;47.554;8.504;2022-08-03T12:25:23;34.50;47.90
73939;DHT22;62291;47.554;8.504;2022-08-03T12:27:50;34.50;48.20
73939;DHT22;62291;47.554;8.504;2022-08-03T12:30:16;34.50;47.30
73939;DHT22;62291;47.554;8.504;2022-08-03T12:32:42;34.50;46.80
73939;DHT22;62291;47.554;8.504;2022-08-03T12:35:09;34.70;47.20
73939;DHT22;62291;47.554;8.504;2022-08-03T12:37:35;34.60;46.90
73939;DHT22;62291;47.554;8.504;2022-08-03T12:40:02;34.70;47.00
73939;DHT22;62291;47.554;8.504;2022-08-03T12:44:56;34.60;48.30
73939;DHT22;62291;47.554;8.504;2022-08-03T12:47:22;34.90;47.20
73939;DHT22;62291;47.554;8.504;2022-08-03T12:49:49;34.90;47.90
73939;DHT22;62291;47.554;8.504;2022-08-03T12:52:16;35.10;46.80
73939;DHT22;62291;47.554;8.504;2022-08-03T12:54:42;34.90;47.20
73939;DHT22;62291;47.554;8.504;2022-08-03T12:57:18;35.00;46.30
73939;DHT22;62291;47.554;8.504;2022-08-03T12:59:44;34.80;46.70
73939;DHT22;62291;47.554;8.504;2022-08-03T13:02:17;35.10;45.90
73939;DHT22;62291;47.554;8.504;2022-08-03T13:04:44;35.40;44.70
73939;DHT22;62291;47.554;8.504;2022-08-03T13:07:11;35.60;45.90
73939;DHT22;62291;47.554;8.504;2022-08-03T13:09:48;35.70;44.30
73939;DHT22;62291;47.554;8.504;2022-08-03T13:12:22;35.90;43.00
73939;DHT22;62291;47.554;8.504;2022-08-03T13:14:50;36.00;44.30
73939;DHT22;62291;47.554;8.504;2022-08-03T13:17:16;35.90;43.60
73939;DHT22;62291;47.554;8.504;2022-08-03T13:19:43;35.80;45.30
73939;DHT22;62291;47.554;8.504;2022-08-03T13:22:14;35.80;44.40
73939;DHT22;62291;47.554;8.504;2022-08-03T13:24:42;35.40;44.20
73939;DHT22;62291;47.554;8.504;2022-08-03T13:27:08;35.50;43.90
73939;DHT22;62291;47.554;8.504;2022-08-03T13:29:34;35.70;43.50
73939;DHT22;62291;47.554;8.504;2022-08-03T13:32:01;35.60;43.90
73939;DHT22;62291;47.554;8.504;2022-08-03T13:34:27;35.30;43.20
73939;DHT22;62291;47.554;8.504;2022-08-03T13:36:53;35.00;44.00
73939;DHT22;62291;47.554;8.504;2022-08-03T13:39:19;35.00;44.10
73939;DHT22;62291;47.554;8.504;2022-08-03T13:41:45;35.20;44.40
73939;DHT22;62291;47.554;8.504;2022-08-03T13:44:11;35.30;44.10
73939;DHT22;62291;47.554;8.504;2022-08-03T13:46:37;35.20;43.50
73939;DHT22;62291;47.554;8.504;2022-08-03T13:49:02;35.30;44.60
73939;DHT22;62291;47.554;8.504;2022-08-03T13:51:29;35.20;43.10
73939;DHT22;62291;47.554;8.504;2022-08-03T13:53:54;35.20;42.90
73939;DHT22;62291;47.554;8.504;2022-08-03T13:56:20;35.10;43.30
73939;DHT22;62291;47.554;8.504;2022-08-03T13:58:45;35.10;44.00
73939;DHT22;62291;47.554;8.504;2022-08-03T14:01:11;35.10;43.40
73939;DHT22;62291;47.554;8.504;2022-08-03T14:03:37;34.90;43.80
73939;DHT22;62291;47.554;8.504;2022-08-03T14:06:03;34.70;43.00
73939;DHT22;62291;47.554;8.504;2022-08-03T14:08:29;34.70;43.30
73939;DHT22;62291;47.554;8.504;2022-08-03T14:10:54;34.60;42.80
73939;DHT22;62291;47.554;8.504;2022-08-03T14:13:20;34.50;43.60
73939;DHT22;62291;47.554;8.504;2022-08-03T14:15:46;34.50;43.70
73939;DHT22;62291;47.554;8.504;2022-08-03T14:18:12;34.50;43.40
73939;DHT22;62291;47.554;8.504;2022-08-03T14:20:38;34.40;43.50
73939;DHT22;62291;47.554;8.504;2022-08-03T14:23:03;34.20;42.70
73939;DHT22;62291;47.554;8.504;2022-08-03T14:25:29;34.20;42.70
73939;DHT22;62291;47.554;8.504;2022-08-03T14:27:56;34.20;42.70
73939;DHT22;62291;47.554;8.504;2022-08-03T14:30:22;33.90;42.60
73939;DHT22;62291;47.554;8.504;2022-08-03T14:32:47;33.70;42.30
73939;DHT22;62291;47.554;8.504;2022-08-03T14:35:13;33.70;41.90
73939;DHT22;62291;47.554;8.504;2022-08-03T14:37:39;33.70;42.40
73939;DHT22;62291;47.554;8.504;2022-08-03T14:40:05;33.60;42.90
73939;DHT22;62291;47.554;8.504;2022-08-03T14:42:31;33.50;42.40
73939;DHT22;62291;47.554;8.504;2022-08-03T14:44:57;33.40;43.00
73939;DHT22;62291;47.554;8.504;2022-08-03T14:47:22;33.40;42.50
73939;DHT22;62291;47.554;8.504;2022-08-03T14:49:48;33.40;42.20
73939;DHT22;62291;47.554;8.504;2022-08-03T14:52:14;33.40;40.70
73939;DHT22;62291;47.554;8.504;2022-08-03T14:54:39;33.30;40.60
73939;DHT22;62291;47.554;8.504;2022-08-03T14:57:05;33.30;41.60
73939;DHT22;62291;47.554;8.504;2022-08-03T14:59:31;33.30;40.30
73939;DHT22;62291;47.554;8.504;2022-08-03T15:01:57;33.20;41.10
73939;DHT22;62291;47.554;8.504;2022-08-03T15:04:22;33.10;40.90
73939;DHT22;62291;47.554;8.504;2022-08-03T15:06:48;33.10;42.80
73939;DHT22;62291;47.554;8.504;2022-08-03T15:09:17;33.10;43.90
73939;DHT22;62291;47.554;8.504;2022-08-03T15:11:42;33.10;43.80
73939;DHT22;62291;47.554;8.504;2022-08-03T15:14:08;33.30;43.80
73939;DHT22;62291;47.554;8.504;2022-08-03T15:16:34;33.20;43.00
73939;DHT22;62291;47.554;8.504;2022-08-03T15:18:59;33.10;43.50
73939;DHT22;62291;47.554;8.504;2022-08-03T15:21:25;33.10;43.20
73939;DHT22;62291;47.554;8.504;2022-08-03T15:23:51;33.00;43.70
73939;DHT22;62291;47.554;8.504;2022-08-03T15:26:17;33.00;42.80
73939;DHT22;62291;47.554;8.504;2022-08-03T15:28:42;33.00;42.60
73939;DHT22;62291;47.554;8.504;2022-08-03T15:31:08;33.10;43.30
73939;DHT22;62291;47.554;8.504;2022-08-03T15:33:34;33.10;42.90
73939;DHT22;62291;47.554;8.504;2022-08-03T15:35:59;33.10;42.40
73939;DHT22;62291;47.554;8.504;2022-08-03T15:38:25;33.00;42.50
73939;DHT22;62291;47.554;8.504;2022-08-03T15:40:51;33.00;43.00
73939;DHT22;62291;47.554;8.504;2022-08-03T15:43:19;33.00;43.40
73939;DHT22;62291;47.554;8.504;2022-08-03T15:45:45;32.90;43.20
73939;DHT22;62291;47.554;8.504;2022-08-03T15:48:11;32.90;43.30
73939;DHT22;62291;47.554;8.504;2022-08-03T15:50:37;32.90;42.40
73939;DHT22;62291;47.554;8.504;2022-08-03T15:53:03;32.90;42.90
73939;DHT22;62291;47.554;8.504;2022-08-03T15:55:29;32.80;42.70
73939;DHT22;62291;47.554;8.504;2022-08-03T15:57:55;32.80;43.30
73939;DHT22;62291;47.554;8.504;2022-08-03T16:00:21;32.80;42.80
73939;DHT22;62291;47.554;8.504;2022-08-03T16:02:47;32.80;43.20
73939;DHT22;62291;47.554;8.504;2022-08-03T16:05:15;32.80;44.10
73939;DHT22;62291;47.554;8.504;2022-08-03T16:07:41;32.80;43.90
73939;DHT22;62291;47.554;8.504;2022-08-03T16:10:17;32.80;44.40
73939;DHT22;62291;47.554;8.504;2022-08-03T16:12:43;32.70;43.20